sensor_id;sensor_type;location;lat;lon;timestamp;P1;durP1;ratioP1;P2;durP2;ratioP2
10096;SDS011;5087;42.662;23.466;2024-01-30T00:01:04;4.00;;;3.90;;
10096;SDS011;5087;42.662;23.466;2024-01-30T00:03:31;3.87;;;3.87;;
10096;SDS011;5087;42.662;23.466;2024-01-30T00:05:58;3.70;;;3.70;;
10096;SDS011;5087;42.662;23.466;2024-01-30T00:08:27;3.50;;;3.50;;
10096;SDS011;5087;42.662;23.466;2024-01-30T00:10:54;3.67;;;3.67;;
10096;SDS011;5087;42.662;23.466;2024-01-30T00:13:21;3.70;;;3.70;;
10096;SDS011;5087;42.662;23.466;2024-01-30T00:15:48;4.20;;;4.10;;
10096;SDS011;5087;42.662;23.466;2024-01-30T00:18:15;4.00;;;3.90;;
10096;SDS011;5087;42.662;23.466;2024-01-30T00:20:42;4.40;;;4.30;;
10096;SDS011;5087;42.662;23.466;2024-01-30T00:23:09;3.60;;;3.60;;
10096;SDS011;5087;42.662;23.466;2024-01-30T00:25:37;3.60;;;3.60;;
10096;SDS011;5087;42.662;23.466;2024-01-30T00:28:04;3.57;;;3.57;;
10096;SDS011;5087;42.662;23.466;2024-01-30T00:30:32;3.77;;;3.77;;
10096;SDS011;5087;42.662;23.466;2024-01-30T00:32:59;3.33;;;3.33;;
10096;SDS011;5087;42.662;23.466;2024-01-30T00:35:30;4.80;;;4.70;;
10096;SDS011;5087;42.662;23.466;2024-01-30T00:38:00;5.50;;;5.40;;
10096;SDS011;5087;42.662;23.466;2024-01-30T00:57:03;2.60;;;2.60;;
10096;SDS011;5087;42.662;23.466;2024-01-30T00:59:35;3.10;;;3.10;;
10096;SDS011;5087;42.662;23.466;2024-01-30T01:02:06;3.43;;;3.43;;
10096;SDS011;5087;42.662;23.466;2024-01-30T01:04:39;3.70;;;3.70;;
10096;SDS011;5087;42.662;23.466;2024-01-30T01:07:08;3.40;;;3.40;;
10096;SDS011;5087;42.662;23.466;2024-01-30T01:09:36;3.50;;;3.50;;
10096;SDS011;5087;42.662;23.466;2024-01-30T01:12:08;4.23;;;4.13;;
10096;SDS011;5087;42.662;23.466;2024-01-30T01:14:36;4.23;;;4.13;;
10096;SDS011;5087;42.662;23.466;2024-01-30T01:17:03;4.20;;;4.10;;
10096;SDS011;5087;42.662;23.466;2024-01-30T01:19:30;3.87;;;3.87;;
10096;SDS011;5087;42.662;23.466;2024-01-30T01:21:57;4.30;;;4.20;;
10096;SDS011;5087;42.662;23.466;2024-01-30T01:24:26;5.00;;;4.90;;
10096;SDS011;5087;42.662;23.466;2024-01-30T01:26:53;5.10;;;5.00;;
10096;SDS011;5087;42.662;23.466;2024-01-30T01:29:23;5.73;;;5.63;;
10096;SDS011;5087;42.662;23.466;2024-01-30T01:31:54;4.97;;;4.87;;
10096;SDS011;5087;42.662;23.466;2024-01-30T01:34:21;4.30;;;4.20;;
10096;SDS011;5087;42.662;23.466;2024-01-30T01:36:49;4.37;;;4.27;;
10096;SDS011;5087;42.662;23.466;2024-01-30T01:39:16;4.10;;;4.00;;
10096;SDS011;5087;42.662;23.466;2024-01-30T01:41:43;4.10;;;4.00;;
10096;SDS011;5087;42.662;23.466;2024-01-30T01:44:10;4.60;;;4.50;;
10096;SDS011;5087;42.662;23.466;2024-01-30T01:46:40;4.87;;;4.77;;
10096;SDS011;5087;42.662;23.466;2024-01-30T01:49:11;4.90;;;4.80;;
10096;SDS011;5087;42.662;23.466;2024-01-30T01:51:38;4.70;;;4.60;;
10096;SDS011;5087;42.662;23.466;2024-01-30T01:54:06;5.70;;;5.60;;
10096;SDS011;5087;42.662;23.466;2024-01-30T01:56:34;5.10;;;5.00;;
10096;SDS011;5087;42.662;23.466;2024-01-30T01:59:05;5.30;;;5.20;;
10096;SDS011;5087;42.662;23.466;2024-01-30T02:01:33;5.07;;;4.97;;
10096;SDS011;5087;42.662;23.466;2024-01-30T02:04:02;4.00;;;3.90;;
10096;SDS011;5087;42.662;23.466;2024-01-30T02:06:29;3.80;;;3.80;;
10096;SDS011;5087;42.662;23.466;2024-01-30T02:08:57;4.13;;;4.03;;
10096;SDS011;5087;42.662;23.466;2024-01-30T02:11:24;4.17;;;4.07;;
10096;SDS011;5087;42.662;23.466;2024-01-30T02:13:52;3.60;;;3.60;;
10096;SDS011;5087;42.662;23.466;2024-01-30T02:16:19;3.10;;;3.10;;
10096;SDS011;5087;42.662;23.466;2024-01-30T02:18:46;3.50;;;3.50;;
10096;SDS011;5087;42.662;23.466;2024-01-30T02:21:15;3.30;;;3.30;;
10096;SDS011;5087;42.662;23.466;2024-01-30T02:23:44;3.40;;;3.40;;
10096;SDS011;5087;42.662;23.466;2024-01-30T02:26:13;3.60;;;3.60;;
10096;SDS011;5087;42.662;23.466;2024-01-30T02:28:41;3.67;;;3.67;;
10096;SDS011;5087;42.662;23.466;2024-01-30T02:31:08;4.03;;;3.93;;
10096;SDS011;5087;42.662;23.466;2024-01-30T02:33:35;3.93;;;3.87;;
10096;SDS011;5087;42.662;23.466;2024-01-30T02:36:02;3.30;;;3.30;;
10096;SDS011;5087;42.662;23.466;2024-01-30T02:38:31;3.83;;;3.80;;
10096;SDS011;5087;42.662;23.466;2024-01-30T02:40:58;4.20;;;4.10;;
10096;SDS011;5087;42.662;23.466;2024-01-30T02:43:25;4.23;;;4.13;;
10096;SDS011;5087;42.662;23.466;2024-01-30T02:45:52;3.70;;;3.70;;
10096;SDS011;5087;42.662;23.466;2024-01-30T02:48:19;3.43;;;3.43;;
10096;SDS011;5087;42.662;23.466;2024-01-30T02:50:47;3.80;;;3.80;;
10096;SDS011;5087;42.662;23.466;2024-01-30T02:53:14;4.10;;;4.00;;
10096;SDS011;5087;42.662;23.466;2024-01-30T02:55:43;3.70;;;3.70;;
10096;SDS011;5087;42.662;23.466;2024-01-30T02:58:10;3.57;;;3.57;;
10096;SDS011;5087;42.662;23.466;2024-01-30T03:00:37;3.50;;;3.50;;
10096;SDS011;5087;42.662;23.466;2024-01-30T03:03:04;3.93;;;3.90;;
10096;SDS011;5087;42.662;23.466;2024-01-30T03:05:31;3.97;;;3.90;;
10096;SDS011;5087;42.662;23.466;2024-01-30T03:07:58;3.43;;;3.43;;
10096;SDS011;5087;42.662;23.466;2024-01-30T03:10:25;3.50;;;3.50;;
10096;SDS011;5087;42.662;23.466;2024-01-30T03:12:54;4.20;;;4.10;;
10096;SDS011;5087;42.662;23.466;2024-01-30T03:15:22;3.63;;;3.63;;
10096;SDS011;5087;42.662;23.466;2024-01-30T03:17:49;3.60;;;3.60;;
10096;SDS011;5087;42.662;23.466;2024-01-30T03:20:16;3.50;;;3.50;;
10096;SDS011;5087;42.662;23.466;2024-01-30T03:22:45;3.70;;;3.70;;
10096;SDS011;5087;42.662;23.466;2024-01-30T03:25:13;4.53;;;4.43;;
10096;SDS011;5087;42.662;23.466;2024-01-30T03:27:40;4.60;;;4.50;;
10096;SDS011;5087;42.662;23.466;2024-01-30T03:30:09;3.83;;;3.83;;
10096;SDS011;5087;42.662;23.466;2024-01-30T03:32:36;4.67;;;4.57;;
10096;SDS011;5087;42.662;23.466;2024-01-30T03:35:04;4.30;;;4.20;;
10096;SDS011;5087;42.662;23.466;2024-01-30T03:37:31;3.70;;;3.70;;
10096;SDS011;5087;42.662;23.466;2024-01-30T03:39:58;3.80;;;3.80;;
10096;SDS011;5087;42.662;23.466;2024-01-30T03:42:25;4.00;;;3.90;;
10096;SDS011;5087;42.662;23.466;2024-01-30T03:44:52;3.77;;;3.77;;
10096;SDS011;5087;42.662;23.466;2024-01-30T03:47:23;2.70;;;2.70;;
10096;SDS011;5087;42.662;23.466;2024-01-30T03:49:51;2.70;;;2.70;;
10096;SDS011;5087;42.662;23.466;2024-01-30T03:52:18;2.90;;;2.90;;
10096;SDS011;5087;42.662;23.466;2024-01-30T03:54:45;2.80;;;2.80;;
10096;SDS011;5087;42.662;23.466;2024-01-30T03:57:12;3.70;;;3.70;;
10096;SDS011;5087;42.662;23.466;2024-01-30T03:59:41;3.30;;;3.30;;
10096;SDS011;5087;42.662;23.466;2024-01-30T04:02:09;3.17;;;3.17;;
10096;SDS011;5087;42.662;23.466;2024-01-30T04:04:38;3.30;;;3.30;;
10096;SDS011;5087;42.662;23.466;2024-01-30T04:07:05;3.30;;;3.30;;
10096;SDS011;5087;42.662;23.466;2024-01-30T04:09:32;3.27;;;3.27;;
10096;SDS011;5087;42.662;23.466;2024-01-30T04:11:59;3.07;;;3.07;;
10096;SDS011;5087;42.662;23.466;2024-01-30T04:14:28;3.40;;;3.40;;
10096;SDS011;5087;42.662;23.466;2024-01-30T04:16:55;3.30;;;3.30;;
10096;SDS011;5087;42.662;23.466;2024-01-30T04:19:26;3.40;;;3.40;;
10096;SDS011;5087;42.662;23.466;2024-01-30T04:21:54;3.60;;;3.60;;
10096;SDS011;5087;42.662;23.466;2024-01-30T04:24:21;3.13;;;3.13;;
10096;SDS011;5087;42.662;23.466;2024-01-30T04:26:48;3.40;;;3.40;;
10096;SDS011;5087;42.662;23.466;2024-01-30T04:29:15;3.33;;;3.33;;
10096;SDS011;5087;42.662;23.466;2024-01-30T04:31:42;3.57;;;3.57;;
10096;SDS011;5087;42.662;23.466;2024-01-30T04:34:09;3.60;;;3.60;;
10096;SDS011;5087;42.662;23.466;2024-01-30T04:36:36;5.33;;;5.23;;
10096;SDS011;5087;42.662;23.466;2024-01-30T04:39:05;5.80;;;5.70;;
10096;SDS011;5087;42.662;23.466;2024-01-30T04:41:35;5.70;;;5.60;;
10096;SDS011;5087;42.662;23.466;2024-01-30T04:44:03;6.20;;;6.10;;
10096;SDS011;5087;42.662;23.466;2024-01-30T04:46:30;6.57;;;6.47;;
10096;SDS011;5087;42.662;23.466;2024-01-30T04:48:57;6.03;;;5.93;;
10096;SDS011;5087;42.662;23.466;2024-01-30T04:51:24;5.13;;;5.03;;
10096;SDS011;5087;42.662;23.466;2024-01-30T04:53:52;3.47;;;3.47;;
10096;SDS011;5087;42.662;23.466;2024-01-30T04:56:21;3.87;;;3.87;;
10096;SDS011;5087;42.662;23.466;2024-01-30T04:58:48;3.00;;;3.00;;
10096;SDS011;5087;42.662;23.466;2024-01-30T05:01:18;3.50;;;3.50;;
10096;SDS011;5087;42.662;23.466;2024-01-30T05:03:45;3.43;;;3.43;;
10096;SDS011;5087;42.662;23.466;2024-01-30T05:06:12;3.60;;;3.60;;
10096;SDS011;5087;42.662;23.466;2024-01-30T05:08:50;3.50;;;3.50;;
10096;SDS011;5087;42.662;23.466;2024-01-30T05:11:18;3.17;;;3.17;;
10096;SDS011;5087;42.662;23.466;2024-01-30T05:13:46;3.50;;;3.50;;
10096;SDS011;5087;42.662;23.466;2024-01-30T05:16:13;3.50;;;3.50;;
10096;SDS011;5087;42.662;23.466;2024-01-30T05:18:40;3.40;;;3.40;;
10096;SDS011;5087;42.662;23.466;2024-01-30T05:21:07;3.50;;;3.50;;
10096;SDS011;5087;42.662;23.466;2024-01-30T05:23:35;3.20;;;3.20;;
10096;SDS011;5087;42.662;23.466;2024-01-30T05:26:02;3.60;;;3.60;;
10096;SDS011;5087;42.662;23.466;2024-01-30T05:28:29;3.50;;;3.50;;
10096;SDS011;5087;42.662;23.466;2024-01-30T05:30:58;3.40;;;3.40;;
10096;SDS011;5087;42.662;23.466;2024-01-30T05:33:26;3.50;;;3.50;;
10096;SDS011;5087;42.662;23.466;2024-01-30T05:36:00;3.63;;;3.63;;
10096;SDS011;5087;42.662;23.466;2024-01-30T05:38:28;3.30;;;3.30;;
10096;SDS011;5087;42.662;23.466;2024-01-30T05:40:58;3.10;;;3.10;;
10096;SDS011;5087;42.662;23.466;2024-01-30T05:43:25;3.40;;;3.40;;
10096;SDS011;5087;42.662;23.466;2024-01-30T05:45:52;3.17;;;3.17;;
10096;SDS011;5087;42.662;23.466;2024-01-30T05:48:20;3.30;;;3.30;;
10096;SDS011;5087;42.662;23.466;2024-01-30T05:50:48;3.30;;;3.30;;
10096;SDS011;5087;42.662;23.466;2024-01-30T05:53:15;3.13;;;3.13;;
10096;SDS011;5087;42.662;23.466;2024-01-30T05:55:42;3.20;;;3.20;;
10096;SDS011;5087;42.662;23.466;2024-01-30T05:58:09;3.50;;;3.50;;
10096;SDS011;5087;42.662;23.466;2024-01-30T06:00:37;3.80;;;3.80;;
10096;SDS011;5087;42.662;23.466;2024-01-30T06:03:04;3.70;;;3.70;;
10096;SDS011;5087;42.662;23.466;2024-01-30T06:05:33;3.60;;;3.60;;
10096;SDS011;5087;42.662;23.466;2024-01-30T06:08:01;3.50;;;3.50;;
10096;SDS011;5087;42.662;23.466;2024-01-30T06:10:28;3.00;;;3.00;;
10096;SDS011;5087;42.662;23.466;2024-01-30T06:12:56;3.30;;;3.30;;
10096;SDS011;5087;42.662;23.466;2024-01-30T06:15:24;3.40;;;3.40;;
10096;SDS011;5087;42.662;23.466;2024-01-30T06:17:51;3.40;;;3.40;;
10096;SDS011;5087;42.662;23.466;2024-01-30T06:20:19;3.30;;;3.30;;
10096;SDS011;5087;42.662;23.466;2024-01-30T06:22:50;3.10;;;3.10;;
10096;SDS011;5087;42.662;23.466;2024-01-30T06:25:17;3.30;;;3.30;;
10096;SDS011;5087;42.662;23.466;2024-01-30T06:28:03;3.20;;;3.20;;
10096;SDS011;5087;42.662;23.466;2024-01-30T06:30:48;3.30;;;3.30;;
10096;SDS011;5087;42.662;23.466;2024-01-30T06:33:19;3.10;;;3.10;;
10096;SDS011;5087;42.662;23.466;2024-01-30T06:35:59;3.50;;;3.50;;
10096;SDS011;5087;42.662;23.466;2024-01-30T06:39:03;3.50;;;3.50;;
10096;SDS011;5087;42.662;23.466;2024-01-30T06:41:31;4.80;;;4.70;;
10096;SDS011;5087;42.662;23.466;2024-01-30T06:43:58;6.10;;;6.00;;
10096;SDS011;5087;42.662;23.466;2024-01-30T06:46:25;6.53;;;6.43;;
10096;SDS011;5087;42.662;23.466;2024-01-30T06:48:52;5.67;;;5.57;;
10096;SDS011;5087;42.662;23.466;2024-01-30T06:51:23;4.60;;;4.50;;
10096;SDS011;5087;42.662;23.466;2024-01-30T06:53:50;3.80;;;3.80;;
10096;SDS011;5087;42.662;23.466;2024-01-30T06:56:18;3.70;;;3.70;;
10096;SDS011;5087;42.662;23.466;2024-01-30T06:58:46;3.80;;;3.80;;
10096;SDS011;5087;42.662;23.466;2024-01-30T07:01:19;3.30;;;3.30;;
10096;SDS011;5087;42.662;23.466;2024-01-30T07:03:47;3.00;;;3.00;;
10096;SDS011;5087;42.662;23.466;2024-01-30T07:06:15;3.30;;;3.30;;
10096;SDS011;5087;42.662;23.466;2024-01-30T07:08:43;3.17;;;3.17;;
10096;SDS011;5087;42.662;23.466;2024-01-30T07:11:10;3.50;;;3.50;;
10096;SDS011;5087;42.662;23.466;2024-01-30T07:13:39;4.30;;;4.20;;
10096;SDS011;5087;42.662;23.466;2024-01-30T07:16:07;4.93;;;4.83;;
10096;SDS011;5087;42.662;23.466;2024-01-30T07:18:34;4.23;;;4.13;;
10096;SDS011;5087;42.662;23.466;2024-01-30T07:21:07;3.90;;;3.90;;
10096;SDS011;5087;42.662;23.466;2024-01-30T07:23:35;4.40;;;4.30;;
10096;SDS011;5087;42.662;23.466;2024-01-30T07:26:04;4.23;;;4.13;;
10096;SDS011;5087;42.662;23.466;2024-01-30T07:28:31;4.20;;;4.10;;
10096;SDS011;5087;42.662;23.466;2024-01-30T07:31:00;4.50;;;4.40;;
10096;SDS011;5087;42.662;23.466;2024-01-30T07:33:28;4.03;;;3.93;;
10096;SDS011;5087;42.662;23.466;2024-01-30T07:35:59;3.60;;;3.60;;
10096;SDS011;5087;42.662;23.466;2024-01-30T07:38:26;3.80;;;3.80;;
10096;SDS011;5087;42.662;23.466;2024-01-30T07:40:53;3.30;;;3.30;;
10096;SDS011;5087;42.662;23.466;2024-01-30T07:43:26;3.13;;;3.13;;
10096;SDS011;5087;42.662;23.466;2024-01-30T07:45:53;2.80;;;2.80;;
10096;SDS011;5087;42.662;23.466;2024-01-30T07:48:25;2.70;;;2.70;;
10096;SDS011;5087;42.662;23.466;2024-01-30T07:50:53;2.80;;;2.80;;
10096;SDS011;5087;42.662;23.466;2024-01-30T07:53:20;2.80;;;2.80;;
10096;SDS011;5087;42.662;23.466;2024-01-30T07:55:47;2.30;;;2.30;;
10096;SDS011;5087;42.662;23.466;2024-01-30T07:58:15;2.50;;;2.50;;
10096;SDS011;5087;42.662;23.466;2024-01-30T08:00:42;2.20;;;2.20;;
10096;SDS011;5087;42.662;23.466;2024-01-30T08:03:10;2.40;;;2.40;;
10096;SDS011;5087;42.662;23.466;2024-01-30T08:05:50;2.20;;;2.20;;
10096;SDS011;5087;42.662;23.466;2024-01-30T08:08:17;2.10;;;2.10;;
10096;SDS011;5087;42.662;23.466;2024-01-30T08:10:44;2.10;;;2.10;;
10096;SDS011;5087;42.662;23.466;2024-01-30T08:13:11;2.20;;;2.20;;
10096;SDS011;5087;42.662;23.466;2024-01-30T08:15:38;2.10;;;2.10;;
10096;SDS011;5087;42.662;23.466;2024-01-30T08:18:08;1.70;;;1.70;;
10096;SDS011;5087;42.662;23.466;2024-01-30T08:20:35;1.90;;;1.90;;
10096;SDS011;5087;42.662;23.466;2024-01-30T08:23:03;1.70;;;1.70;;
10096;SDS011;5087;42.662;23.466;2024-01-30T08:25:30;1.70;;;1.70;;
10096;SDS011;5087;42.662;23.466;2024-01-30T08:27:57;1.53;;;1.53;;
10096;SDS011;5087;42.662;23.466;2024-01-30T08:30:25;1.70;;;1.70;;
10096;SDS011;5087;42.662;23.466;2024-01-30T08:32:53;1.60;;;1.60;;
10096;SDS011;5087;42.662;23.466;2024-01-30T08:35:20;2.07;;;2.07;;
10096;SDS011;5087;42.662;23.466;2024-01-30T08:37:47;2.43;;;2.43;;
10096;SDS011;5087;42.662;23.466;2024-01-30T08:40:17;2.30;;;2.30;;
10096;SDS011;5087;42.662;23.466;2024-01-30T08:42:45;2.50;;;2.50;;
10096;SDS011;5087;42.662;23.466;2024-01-30T08:45:12;3.00;;;3.00;;
10096;SDS011;5087;42.662;23.466;2024-01-30T08:47:40;2.70;;;2.70;;
10096;SDS011;5087;42.662;23.466;2024-01-30T08:50:07;2.60;;;2.60;;
10096;SDS011;5087;42.662;23.466;2024-01-30T08:52:37;2.50;;;2.50;;
10096;SDS011;5087;42.662;23.466;2024-01-30T08:55:04;2.50;;;2.50;;
10096;SDS011;5087;42.662;23.466;2024-01-30T08:57:42;2.50;;;2.50;;
10096;SDS011;5087;42.662;23.466;2024-01-30T09:00:09;2.60;;;2.60;;
10096;SDS011;5087;42.662;23.466;2024-01-30T09:02:37;2.30;;;2.30;;
10096;SDS011;5087;42.662;23.466;2024-01-30T09:05:04;2.13;;;2.13;;
10096;SDS011;5087;42.662;23.466;2024-01-30T09:07:32;1.80;;;1.80;;
10096;SDS011;5087;42.662;23.466;2024-01-30T09:09:59;1.60;;;1.60;;
10096;SDS011;5087;42.662;23.466;2024-01-30T09:12:26;1.70;;;1.70;;
10096;SDS011;5087;42.662;23.466;2024-01-30T09:15:01;2.07;;;2.07;;
10096;SDS011;5087;42.662;23.466;2024-01-30T09:17:28;2.30;;;2.30;;
10096;SDS011;5087;42.662;23.466;2024-01-30T09:19:56;2.40;;;2.40;;
10096;SDS011;5087;42.662;23.466;2024-01-30T09:22:23;2.30;;;2.30;;
10096;SDS011;5087;42.662;23.466;2024-01-30T09:24:52;2.30;;;2.30;;
10096;SDS011;5087;42.662;23.466;2024-01-30T09:27:19;2.10;;;2.10;;
10096;SDS011;5087;42.662;23.466;2024-01-30T09:29:47;1.80;;;1.80;;
10096;SDS011;5087;42.662;23.466;2024-01-30T09:32:15;1.90;;;1.90;;
10096;SDS011;5087;42.662;23.466;2024-01-30T09:34:53;1.70;;;1.70;;
10096;SDS011;5087;42.662;23.466;2024-01-30T09:37:20;1.80;;;1.80;;
10096;SDS011;5087;42.662;23.466;2024-01-30T09:39:47;1.70;;;1.70;;
10096;SDS011;5087;42.662;23.466;2024-01-30T09:42:18;1.70;;;1.70;;
10096;SDS011;5087;42.662;23.466;2024-01-30T09:44:53;1.80;;;1.80;;
10096;SDS011;5087;42.662;23.466;2024-01-30T09:47:24;1.50;;;1.50;;
10096;SDS011;5087;42.662;23.466;2024-01-30T09:49:52;1.60;;;1.60;;
10096;SDS011;5087;42.662;23.466;2024-01-30T09:52:20;1.70;;;1.70;;
10096;SDS011;5087;42.662;23.466;2024-01-30T09:54:50;1.50;;;1.50;;
10096;SDS011;5087;42.662;23.466;2024-01-30T09:57:18;1.70;;;1.70;;
10096;SDS011;5087;42.662;23.466;2024-01-30T09:59:46;1.50;;;1.50;;
10096;SDS011;5087;42.662;23.466;2024-01-30T10:02:14;1.60;;;1.60;;
10096;SDS011;5087;42.662;23.466;2024-01-30T10:04:43;1.40;;;1.40;;
10096;SDS011;5087;42.662;23.466;2024-01-30T10:07:10;1.60;;;1.60;;
10096;SDS011;5087;42.662;23.466;2024-01-30T10:09:38;1.60;;;1.60;;
10096;SDS011;5087;42.662;23.466;2024-01-30T10:12:07;1.50;;;1.50;;
10096;SDS011;5087;42.662;23.466;2024-01-30T10:14:37;1.60;;;1.60;;
10096;SDS011;5087;42.662;23.466;2024-01-30T10:17:04;2.00;;;2.00;;
10096;SDS011;5087;42.662;23.466;2024-01-30T10:19:32;2.00;;;2.00;;
10096;SDS011;5087;42.662;23.466;2024-01-30T10:22:03;1.80;;;1.80;;
10096;SDS011;5087;42.662;23.466;2024-01-30T10:24:35;1.50;;;1.50;;
10096;SDS011;5087;42.662;23.466;2024-01-30T10:27:30;1.70;;;1.70;;
10096;SDS011;5087;42.662;23.466;2024-01-30T10:29:57;1.60;;;1.60;;
10096;SDS011;5087;42.662;23.466;2024-01-30T10:32:25;1.50;;;1.50;;
10096;SDS011;5087;42.662;23.466;2024-01-30T10:34:54;1.80;;;1.80;;
10096;SDS011;5087;42.662;23.466;2024-01-30T10:37:25;2.27;;;2.27;;
10096;SDS011;5087;42.662;23.466;2024-01-30T10:40:00;2.30;;;2.30;;
10096;SDS011;5087;42.662;23.466;2024-01-30T10:42:31;2.40;;;2.40;;
10096;SDS011;5087;42.662;23.466;2024-01-30T10:45:00;1.97;;;1.97;;
10096;SDS011;5087;42.662;23.466;2024-01-30T10:47:34;2.20;;;2.20;;
10096;SDS011;5087;42.662;23.466;2024-01-30T10:50:05;2.30;;;2.30;;
10096;SDS011;5087;42.662;23.466;2024-01-30T10:52:37;2.17;;;2.17;;
10096;SDS011;5087;42.662;23.466;2024-01-30T10:55:05;2.50;;;2.50;;
10096;SDS011;5087;42.662;23.466;2024-01-30T10:57:34;2.50;;;2.50;;
10096;SDS011;5087;42.662;23.466;2024-01-30T11:00:06;2.80;;;2.80;;
10096;SDS011;5087;42.662;23.466;2024-01-30T11:02:36;2.80;;;2.80;;
10096;SDS011;5087;42.662;23.466;2024-01-30T11:05:05;2.80;;;2.80;;
10096;SDS011;5087;42.662;23.466;2024-01-30T11:07:33;2.57;;;2.57;;
10096;SDS011;5087;42.662;23.466;2024-01-30T11:10:05;2.30;;;2.30;;
10096;SDS011;5087;42.662;23.466;2024-01-30T11:12:38;2.60;;;2.60;;
10096;SDS011;5087;42.662;23.466;2024-01-30T11:15:09;2.50;;;2.50;;
10096;SDS011;5087;42.662;23.466;2024-01-30T11:17:40;2.30;;;2.30;;
10096;SDS011;5087;42.662;23.466;2024-01-30T11:20:11;2.50;;;2.50;;
10096;SDS011;5087;42.662;23.466;2024-01-30T11:22:44;2.40;;;2.40;;
10096;SDS011;5087;42.662;23.466;2024-01-30T11:25:14;2.40;;;2.40;;
10096;SDS011;5087;42.662;23.466;2024-01-30T11:27:42;2.30;;;2.30;;
10096;SDS011;5087;42.662;23.466;2024-01-30T11:33:04;2.20;;;2.20;;
10096;SDS011;5087;42.662;23.466;2024-01-30T11:35:42;2.27;;;2.27;;
10096;SDS011;5087;42.662;23.466;2024-01-30T11:38:10;2.20;;;2.20;;
10096;SDS011;5087;42.662;23.466;2024-01-30T11:40:49;1.93;;;1.93;;
10096;SDS011;5087;42.662;23.466;2024-01-30T11:43:18;2.10;;;2.10;;
10096;SDS011;5087;42.662;23.466;2024-01-30T11:45:50;1.90;;;1.90;;
10096;SDS011;5087;42.662;23.466;2024-01-30T11:48:20;1.80;;;1.80;;
10096;SDS011;5087;42.662;23.466;2024-01-30T11:50:48;1.70;;;1.70;;
10096;SDS011;5087;42.662;23.466;2024-01-30T11:53:17;1.50;;;1.50;;
10096;SDS011;5087;42.662;23.466;2024-01-30T11:55:50;1.60;;;1.60;;
10096;SDS011;5087;42.662;23.466;2024-01-30T11:58:18;1.57;;;1.57;;
10096;SDS011;5087;42.662;23.466;2024-01-30T12:00:52;1.30;;;1.30;;
10096;SDS011;5087;42.662;23.466;2024-01-30T12:03:21;1.40;;;1.40;;
10096;SDS011;5087;42.662;23.466;2024-01-30T12:05:54;1.30;;;1.30;;
10096;SDS011;5087;42.662;23.466;2024-01-30T12:08:24;1.60;;;1.60;;
10096;SDS011;5087;42.662;23.466;2024-01-30T12:10:59;1.87;;;1.87;;
10096;SDS011;5087;42.662;23.466;2024-01-30T12:13:30;2.00;;;2.00;;
10096;SDS011;5087;42.662;23.466;2024-01-30T12:15:58;2.00;;;2.00;;
10096;SDS011;5087;42.662;23.466;2024-01-30T12:18:32;1.80;;;1.80;;
10096;SDS011;5087;42.662;23.466;2024-01-30T12:21:00;2.10;;;2.10;;
10096;SDS011;5087;42.662;23.466;2024-01-30T12:23:27;2.00;;;2.00;;
10096;SDS011;5087;42.662;23.466;2024-01-30T12:25:54;1.70;;;1.70;;
10096;SDS011;5087;42.662;23.466;2024-01-30T12:28:23;1.70;;;1.70;;
10096;SDS011;5087;42.662;23.466;2024-01-30T12:30:55;1.90;;;1.90;;
10096;SDS011;5087;42.662;23.466;2024-01-30T12:33:33;1.70;;;1.70;;
10096;SDS011;5087;42.662;23.466;2024-01-30T12:36:02;1.80;;;1.80;;
10096;SDS011;5087;42.662;23.466;2024-01-30T12:38:34;1.80;;;1.80;;
10096;SDS011;5087;42.662;23.466;2024-01-30T12:41:01;2.00;;;2.00;;
10096;SDS011;5087;42.662;23.466;2024-01-30T12:43:30;1.70;;;1.70;;
10096;SDS011;5087;42.662;23.466;2024-01-30T12:46:07;1.40;;;1.40;;
10096;SDS011;5087;42.662;23.466;2024-01-30T12:48:34;1.40;;;1.40;;
10096;SDS011;5087;42.662;23.466;2024-01-30T12:51:01;1.40;;;1.40;;
10096;SDS011;5087;42.662;23.466;2024-01-30T12:53:28;1.50;;;1.50;;
10096;SDS011;5087;42.662;23.466;2024-01-30T12:56:00;1.80;;;1.80;;
10096;SDS011;5087;42.662;23.466;2024-01-30T12:58:45;1.50;;;1.50;;
10096;SDS011;5087;42.662;23.466;2024-01-30T13:01:46;1.77;;;1.77;;
10096;SDS011;5087;42.662;23.466;2024-01-30T13:05:17;1.70;;;1.70;;
10096;SDS011;5087;42.662;23.466;2024-01-30T13:08:41;1.60;;;1.60;;
10096;SDS011;5087;42.662;23.466;2024-01-30T13:11:45;1.53;;;1.53;;
10096;SDS011;5087;42.662;23.466;2024-01-30T13:22:17;2.00;;;2.00;;
10096;SDS011;5087;42.662;23.466;2024-01-30T13:28:49;1.90;;;1.90;;
10096;SDS011;5087;42.662;23.466;2024-01-30T13:34:44;2.00;;;2.00;;
10096;SDS011;5087;42.662;23.466;2024-01-30T13:37:19;1.90;;;1.90;;
10096;SDS011;5087;42.662;23.466;2024-01-30T13:40:24;1.80;;;1.80;;
10096;SDS011;5087;42.662;23.466;2024-01-30T13:43:45;2.07;;;2.07;;
10096;SDS011;5087;42.662;23.466;2024-01-30T13:46:12;2.10;;;2.10;;
10096;SDS011;5087;42.662;23.466;2024-01-30T13:48:40;2.00;;;2.00;;
10096;SDS011;5087;42.662;23.466;2024-01-30T13:51:07;2.30;;;2.30;;
10096;SDS011;5087;42.662;23.466;2024-01-30T13:53:36;2.40;;;2.40;;
10096;SDS011;5087;42.662;23.466;2024-01-30T13:56:12;2.10;;;2.10;;
10096;SDS011;5087;42.662;23.466;2024-01-30T13:58:44;2.30;;;2.30;;
10096;SDS011;5087;42.662;23.466;2024-01-30T14:01:15;2.30;;;2.30;;
10096;SDS011;5087;42.662;23.466;2024-01-30T14:03:43;2.30;;;2.30;;
10096;SDS011;5087;42.662;23.466;2024-01-30T14:06:17;2.20;;;2.20;;
10096;SDS011;5087;42.662;23.466;2024-01-30T14:08:47;2.10;;;2.10;;
10096;SDS011;5087;42.662;23.466;2024-01-30T14:11:14;2.40;;;2.40;;
10096;SDS011;5087;42.662;23.466;2024-01-30T14:13:44;2.50;;;2.50;;
10096;SDS011;5087;42.662;23.466;2024-01-30T14:16:14;2.50;;;2.50;;
10096;SDS011;5087;42.662;23.466;2024-01-30T14:18:46;2.40;;;2.40;;
10096;SDS011;5087;42.662;23.466;2024-01-30T14:21:16;2.30;;;2.30;;
10096;SDS011;5087;42.662;23.466;2024-01-30T14:23:46;2.30;;;2.30;;
10096;SDS011;5087;42.662;23.466;2024-01-30T14:26:16;2.20;;;2.20;;
10096;SDS011;5087;42.662;23.466;2024-01-30T14:28:50;2.10;;;2.10;;
10096;SDS011;5087;42.662;23.466;2024-01-30T14:31:20;2.03;;;2.03;;
10096;SDS011;5087;42.662;23.466;2024-01-30T14:33:55;2.20;;;2.20;;
10096;SDS011;5087;42.662;23.466;2024-01-30T14:36:23;2.20;;;2.20;;
10096;SDS011;5087;42.662;23.466;2024-01-30T14:38:59;2.50;;;2.50;;
10096;SDS011;5087;42.662;23.466;2024-01-30T14:41:29;2.33;;;2.33;;
10096;SDS011;5087;42.662;23.466;2024-01-30T14:43:56;2.50;;;2.50;;
10096;SDS011;5087;42.662;23.466;2024-01-30T14:46:24;2.50;;;2.50;;
10096;SDS011;5087;42.662;23.466;2024-01-30T14:48:52;2.30;;;2.30;;
10096;SDS011;5087;42.662;23.466;2024-01-30T14:51:21;2.40;;;2.40;;
10096;SDS011;5087;42.662;23.466;2024-01-30T14:53:48;2.60;;;2.60;;
10096;SDS011;5087;42.662;23.466;2024-01-30T14:56:15;2.60;;;2.60;;
10096;SDS011;5087;42.662;23.466;2024-01-30T14:58:43;2.80;;;2.80;;
10096;SDS011;5087;42.662;23.466;2024-01-30T15:01:10;2.80;;;2.80;;
10096;SDS011;5087;42.662;23.466;2024-01-30T15:03:37;2.80;;;2.80;;
10096;SDS011;5087;42.662;23.466;2024-01-30T15:06:05;2.53;;;2.53;;
10096;SDS011;5087;42.662;23.466;2024-01-30T15:08:34;2.70;;;2.70;;
10096;SDS011;5087;42.662;23.466;2024-01-30T15:11:01;2.60;;;2.60;;
10096;SDS011;5087;42.662;23.466;2024-01-30T15:13:29;2.80;;;2.80;;
10096;SDS011;5087;42.662;23.466;2024-01-30T15:15:57;2.80;;;2.80;;
10096;SDS011;5087;42.662;23.466;2024-01-30T15:18:24;2.80;;;2.80;;
10096;SDS011;5087;42.662;23.466;2024-01-30T15:20:53;2.80;;;2.80;;
10096;SDS011;5087;42.662;23.466;2024-01-30T15:23:29;3.27;;;3.27;;
10096;SDS011;5087;42.662;23.466;2024-01-30T15:25:58;3.40;;;3.40;;
10096;SDS011;5087;42.662;23.466;2024-01-30T15:28:33;3.40;;;3.30;;
10096;SDS011;5087;42.662;23.466;2024-01-30T15:31:02;3.20;;;3.20;;
10096;SDS011;5087;42.662;23.466;2024-01-30T15:33:29;3.40;;;3.40;;
10096;SDS011;5087;42.662;23.466;2024-01-30T15:35:58;3.67;;;3.67;;
10096;SDS011;5087;42.662;23.466;2024-01-30T15:38:28;3.50;;;3.50;;